Santa Cruz de Bezana, Spain
Current Conditions -  °F | °C
As of 6:00 PM on Sunday 23 Nov 2014 (Local Time) from LEXJ Reporting Station
Scattered Clouds Scattered Clouds  
Wind Chill: 59°   Ceiling: Unl
Heat Index: 59°   Visibility: 5mi
Dew Point: 57°   Wind: 6mph
Humidity: 94%   Direction: 270°W
Pressure: 29.94"   Gusts: NA
Location:  43.44°N, 3.9°W
Report Text: LEXJ 231700Z 27005KT 8000 FEW024 SCT075 15/14 Q1014
Loading
Personal Weather Stations






























Interactive Weather Map New forecast layout! Learn more

10-Day Weather Forecast

Advertisements
Track Severe Weather on mobile